Time;durP1;ratioP1;P1;durP2;ratioP2;P2;SDS_P1;SDS_P2;PMS_P1;PMS_P2;Temp;Humidity;BMP_temperature;BMP_pressure;BME280_temperature;BME280_humidity;BME280_pressure;Samples;Min_cycle;Max_cycle;Signal;HPM_P1;HPM_P2
2022/10/09 00:01:49;;;;;;;;;;;;;;;;;;4931676;28;19918;-59
2022/10/09 00:04:16;;;;;;;;;;;;;;;;;;4932668;28;19918;-59
2022/10/09 00:06:41;;;;;;;;;;;;;;;;;;4917338;28;20033;-59
2022/10/09 00:09:09;;;;;;;;;;;;;;;;;;4902636;28;19922;-61
2022/10/09 00:11:37;;;;;;;;;;;;;;;;;;4932333;28;20405;-61
2022/10/09 00:14:02;;;;;;;;;;;;;;;;;;4934772;28;20082;-61
2022/10/09 00:16:31;;;;;;;;;;;;;;;;;;4928900;28;19923;-61
2022/10/09 00:18:56;;;;;;;;;;;;;;;;;;4929437;28;19925;-60
2022/10/09 00:21:24;;;;;;;;;;;;;;;;;;4914182;28;19918;-61
2022/10/09 00:23:50;;;;;;;;;;;;;;;;;;4934835;28;20014;-60
2022/10/09 00:26:16;;;;;;;;;;;;;;;;;;4930781;28;19926;-60
2022/10/09 00:28:41;;;;;;;;;;;;;;;;;;4898726;28;19922;-60
2022/10/09 00:31:07;;;;;;;;;;;;;;;;;;4933428;28;20014;-60
2022/10/09 00:33:33;;;;;;;;;;;;;;;;;;4913778;28;19918;-59
2022/10/09 00:36:00;;;;;;;;;;;;;;;;;;4935206;28;20920;-59
2022/10/09 00:38:28;;;;;;;;;;;;;;;;;;4934901;28;19937;-59
2022/10/09 00:40:54;;;;;;;;;;;;;;;;;;4934633;28;19922;-59
2022/10/09 00:43:19;;;;;;;;;;;;;;;;;;4935983;28;19933;-59
2022/10/09 00:45:45;;;;;;;;;;;;;;;;;;4916459;28;20033;-59
2022/10/09 00:48:12;;;;;;;;;;;;;;;;;;4933733;28;19925;-59
2022/10/09 00:50:38;;;;;;;;;;;;;;;;;;4934148;28;19925;-60
2022/10/09 00:53:03;;;;;;;;;;;;;;;;;;4918287;28;20386;-58
2022/10/09 00:55:31;;;;;;;;;;;;;;;;;;4932717;28;19918;-59
2022/10/09 00:58:00;;;;;;;;;;;;;;;;;;4935559;28;20209;-59
2022/10/09 01:00:26;;;;;;;;;;;;;;;;;;4933094;28;20917;-59
2022/10/09 01:02:51;;;;;;;;;;;;;;;;;;4931077;28;19918;-59
2022/10/09 01:05:16;;;;;;;;;;;;;;;;;;4935618;28;20658;-59
2022/10/09 01:07:46;;;;;;;;;;;;;;;;;;4901841;28;19933;-59
2022/10/09 01:10:12;;;;;;;;;;;;;;;;;;4915708;28;19929;-59
2022/10/09 01:12:42;;;;;;;;;;;;;;;;;;4933294;28;19926;-59
2022/10/09 01:15:10;;;;;;;;;;;;;;;;;;4932677;28;19918;-59
2022/10/09 01:17:35;;;;;;;;;;;;;;;;;;4913085;29;19929;-58
2022/10/09 01:20:00;;;;;;;;;;;;;;;;;;4931402;28;20300;-59
2022/10/09 01:22:26;;;;;;;;;;;;;;;;;;4937847;28;19922;-60
2022/10/09 01:24:51;;;;;;;;;;;;;;;;;;4933338;28;19937;-59
2022/10/09 01:27:18;;;;;;;;;;;;;;;;;;4898282;28;19918;-59
2022/10/09 01:29:44;;;;;;;;;;;;;;;;;;4934575;28;19918;-60
2022/10/09 01:32:10;;;;;;;;;;;;;;;;;;4933409;28;19930;-59
2022/10/09 01:34:35;;;;;;;;;;;;;;;;;;4935288;28;20013;-60
2022/10/09 01:37:00;;;;;;;;;;;;;;;;;;4918974;28;20021;-59
2022/10/09 01:39:26;;;;;;;;;;;;;;;;;;4921169;28;20514;-59
2022/10/09 01:41:54;;;;;;;;;;;;;;;;;;4900528;28;19929;-60
2022/10/09 01:44:24;;;;;;;;;;;;;;;;;;4932497;28;19929;-60
2022/10/09 01:46:50;;;;;;;;;;;;;;;;;;4929303;28;19993;-59
2022/10/09 01:49:17;;;;;;;;;;;;;;;;;;4894778;28;20374;-59
2022/10/09 01:51:46;;;;;;;;;;;;;;;;;;4931050;28;19927;-60
2022/10/09 01:54:13;;;;;;;;;;;;;;;;;;4930719;28;19923;-59
2022/10/09 01:56:39;;;;;;;;;;;;;;;;;;4927604;28;19990;-60
2022/10/09 01:59:04;;;;;;;;;;;;;;;;;;4930658;28;20270;-59
2022/10/09 02:01:33;;;;;;;;;;;;;;;;;;4931634;28;19929;-59
2022/10/09 02:03:58;;;;;;;;;;;;;;;;;;4935221;28;19929;-60
2022/10/09 02:06:24;;;;;;;;;;;;;;;;;;4931852;28;21107;-59
2022/10/09 02:08:49;;;;;;;;;;;;;;;;;;4916286;28;20247;-60
2022/10/09 02:11:14;;;;;;;;;;;;;;;;;;4916504;28;20402;-60
2022/10/09 02:13:43;;;;;;;;;;;;;;;;;;4918366;28;20748;-60
2022/10/09 02:16:10;;;;;;;;;;;;;;;;;;4931284;28;19922;-60
2022/10/09 02:18:38;;;;;;;;;;;;;;;;;;4929762;28;19970;-60
2022/10/09 02:21:06;;;;;;;;;;;;;;;;;;4930594;28;19930;-60
2022/10/09 02:23:31;;;;;;;;;;;;;;;;;;4935537;28;20676;-60
2022/10/09 02:25:56;;;;;;;;;;;;;;;;;;4932586;28;19926;-60
2022/10/09 02:28:22;;;;;;;;;;;;;;;;;;4929254;28;19930;-60
2022/10/09 02:30:47;;;;;;;;;;;;;;;;;;4933738;28;20037;-60
2022/10/09 02:33:15;;;;;;;;;;;;;;;;;;4940414;28;19923;-60
2022/10/09 02:35:43;;;;;;;;;;;;;;;;;;4922566;28;20898;-59
2022/10/09 02:38:08;;;;;;;;;;;;;;;;;;4936722;28;19981;-59
2022/10/09 02:40:34;;;;;;;;;;;;;;;;;;4937010;28;22058;-59
2022/10/09 02:43:03;;;;;;;;;;;;;;;;;;4939079;28;19929;-59
2022/10/09 02:45:29;;;;;;;;;;;;;;;;;;4935242;28;19922;-59
2022/10/09 02:47:54;;;;;;;;;;;;;;;;;;4939349;28;19977;-58
2022/10/09 02:50:20;;;;;;;;;;;;;;;;;;4939344;28;19973;-59
2022/10/09 02:52:47;;;;;;;;;;;;;;;;;;4933482;28;19926;-60
2022/10/09 02:55:15;;;;;;;;;;;;;;;;;;4933398;28;19948;-60
2022/10/09 02:57:43;;;;;;;;;;;;;;;;;;4931921;28;19931;-59
2022/10/09 03:00:08;;;;;;;;;;;;;;;;;;4931756;28;19939;-59
2022/10/09 03:02:33;;;;;;;;;;;;;;;;;;4931912;28;19918;-58
2022/10/09 03:04:59;;;;;;;;;;;;;;;;;;4935660;28;19922;-59
2022/10/09 03:07:27;;;;;;;;;;;;;;;;;;4935897;28;19933;-59
2022/10/09 03:09:53;;;;;;;;;;;;;;;;;;4938034;28;20405;-60
2022/10/09 03:12:21;;;;;;;;;;;;;;;;;;4936894;28;19926;-59
2022/10/09 03:14:46;;;;;;;;;;;;;;;;;;4917404;28;19992;-59
2022/10/09 03:17:13;;;;;;;;;;;;;;;;;;4918928;28;20393;-59
2022/10/09 03:19:39;;;;;;;;;;;;;;;;;;4931489;28;19923;-59
2022/10/09 03:22:05;;;;;;;;;;;;;;;;;;4919463;28;20151;-59
2022/10/09 03:24:30;;;;;;;;;;;;;;;;;;4934671;28;19922;-60
2022/10/09 03:26:56;;;;;;;;;;;;;;;;;;4913840;28;19923;-59
2022/10/09 03:29:21;;;;;;;;;;;;;;;;;;4930731;28;19923;-64
2022/10/09 03:31:49;;;;;;;;;;;;;;;;;;4916667;28;20793;-59
2022/10/09 03:34:15;;;;;;;;;;;;;;;;;;4930720;28;21216;-60
2022/10/09 03:36:42;;;;;;;;;;;;;;;;;;4932773;28;19918;-59
2022/10/09 03:39:10;;;;;;;;;;;;;;;;;;4899427;28;19927;-59
2022/10/09 03:41:36;;;;;;;;;;;;;;;;;;4908860;29;19930;-59
2022/10/09 03:44:01;;;;;;;;;;;;;;;;;;4911169;29;20560;-59
2022/10/09 03:46:27;;;;;;;;;;;;;;;;;;4906613;29;20004;-59
2022/10/09 03:48:53;;;;;;;;;;;;;;;;;;4895120;29;20386;-59
2022/10/09 03:51:21;;;;;;;;;;;;;;;;;;4907326;29;19930;-59
2022/10/09 03:53:47;;;;;;;;;;;;;;;;;;4909251;29;19958;-59
2022/10/09 03:56:14;;;;;;;;;;;;;;;;;;4907921;29;20449;-59
2022/10/09 03:58:40;;;;;;;;;;;;;;;;;;4886761;29;20036;-58
2022/10/09 04:01:05;;;;;;;;;;;;;;;;;;4906913;29;20013;-59
2022/10/09 04:03:33;;;;;;;;;;;;;;;;;;4905307;29;19923;-59
2022/10/09 04:05:58;;;;;;;;;;;;;;;;;;4905663;29;19923;-59
2022/10/09 04:08:23;;;;;;;;;;;;;;;;;;4904318;28;19929;-59
2022/10/09 04:10:49;;;;;;;;;;;;;;;;;;4905437;29;19919;-59
2022/10/09 04:13:14;;;;;;;;;;;;;;;;;;4906561;29;19922;-59
2022/10/09 04:15:39;;;;;;;;;;;;;;;;;;4892738;29;19930;-58
2022/10/09 04:18:05;;;;;;;;;;;;;;;;;;4908437;29;19929;-59
2022/10/09 04:20:33;;;;;;;;;;;;;;;;;;4895839;28;20422;-59
2022/10/09 04:23:01;;;;;;;;;;;;;;;;;;4911913;29;19922;-60
2022/10/09 04:25:29;;;;;;;;;;;;;;;;;;4909061;29;19934;-60
2022/10/09 04:27:57;;;;;;;;;;;;;;;;;;4907731;29;20942;-60
2022/10/09 04:30:24;;;;;;;;;;;;;;;;;;4892058;29;19923;-59
2022/10/09 04:32:50;;;;;;;;;;;;;;;;;;4885866;29;20478;-59
2022/10/09 04:35:18;;;;;;;;;;;;;;;;;;4905191;29;20124;-59
2022/10/09 04:37:43;;;;;;;;;;;;;;;;;;4901740;29;19958;-60
2022/10/09 04:40:09;;;;;;;;;;;;;;;;;;4917469;29;19930;-59
2022/10/09 04:42:37;;;;;;;;;;;;;;;;;;4920110;29;19922;-59
2022/10/09 04:45:02;;;;;;;;;;;;;;;;;;4918496;29;19933;-59
2022/10/09 04:47:29;;;;;;;;;;;;;;;;;;4914041;29;19923;-60
2022/10/09 04:49:57;;;;;;;;;;;;;;;;;;4917102;28;19966;-59
2022/10/09 04:52:22;;;;;;;;;;;;;;;;;;4918309;29;19926;-59
2022/10/09 04:54:50;;;;;;;;;;;;;;;;;;4915865;29;19926;-59
2022/10/09 04:57:15;;;;;;;;;;;;;;;;;;4912368;28;21965;-59
2022/10/09 04:59:43;;;;;;;;;;;;;;;;;;4916561;28;19922;-59
2022/10/09 05:02:09;;;;;;;;;;;;;;;;;;4937100;28;19997;-59
2022/10/09 05:04:37;;;;;;;;;;;;;;;;;;4928149;28;19967;-59
2022/10/09 05:07:02;;;;;;;;;;;;;;;;;;4938612;28;21266;-59
2022/10/09 05:09:27;;;;;;;;;;;;;;;;;;4922702;28;19961;-59
2022/10/09 05:11:52;;;;;;;;;;;;;;;;;;4939052;28;19929;-59
2022/10/09 05:14:21;;;;;;;;;;;;;;;;;;4941433;28;20011;-59
2022/10/09 05:16:46;;;;;;;;;;;;;;;;;;4940445;28;20037;-60
2022/10/09 05:19:12;;;;;;;;;;;;;;;;;;4917893;28;19918;-60
2022/10/09 05:21:37;;;;;;;;;;;;;;;;;;4919262;28;19926;-59
2022/10/09 05:24:02;;;;;;;;;;;;;;;;;;4933565;28;20388;-59
2022/10/09 05:26:28;;;;;;;;;;;;;;;;;;4933203;28;20005;-60
2022/10/09 05:28:53;;;;;;;;;;;;;;;;;;4935065;28;19971;-60
2022/10/09 05:31:21;;;;;;;;;;;;;;;;;;4930761;28;19927;-58
2022/10/09 05:33:47;;;;;;;;;;;;;;;;;;4941463;28;20868;-59
2022/10/09 05:36:13;;;;;;;;;;;;;;;;;;4934722;28;19993;-59
2022/10/09 05:38:38;;;;;;;;;;;;;;;;;;4930279;28;19922;-59
2022/10/09 05:41:06;;;;;;;;;;;;;;;;;;4907247;28;19957;-59
2022/10/09 05:43:33;;;;;;;;;;;;;;;;;;4933988;28;19954;-59
2022/10/09 05:45:59;;;;;;;;;;;;;;;;;;4929929;28;20338;-59
2022/10/09 05:48:24;;;;;;;;;;;;;;;;;;4930862;28;20029;-59
2022/10/09 05:50:52;;;;;;;;;;;;;;;;;;4917463;28;19922;-59
2022/10/09 05:53:20;;;;;;;;;;;;;;;;;;4933800;28;21808;-59
2022/10/09 05:55:50;;;;;;;;;;;;;;;;;;4919710;28;21981;-60
2022/10/09 05:58:15;;;;;;;;;;;;;;;;;;4920520;28;20667;-60
2022/10/09 06:00:40;;;;;;;;;;;;;;;;;;4937690;28;19937;-59
2022/10/09 06:03:08;;;;;;;;;;;;;;;;;;4936489;28;19922;-60
2022/10/09 06:05:33;;;;;;;;;;;;;;;;;;4939764;28;19957;-58
2022/10/09 06:07:59;;;;;;;;;;;;;;;;;;4942381;28;22153;-59
2022/10/09 06:10:24;;;;;;;;;;;;;;;;;;4917677;28;19918;-59
2022/10/09 06:12:49;;;;;;;;;;;;;;;;;;4937237;28;19926;-59
2022/10/09 06:15:17;;;;;;;;;;;;;;;;;;4937045;28;19922;-58
2022/10/09 06:17:45;;;;;;;;;;;;;;;;;;4918607;28;19933;-60
2022/10/09 06:20:10;;;;;;;;;;;;;;;;;;4917261;28;19994;-60
2022/10/09 06:22:36;;;;;;;;;;;;;;;;;;4931140;28;19965;-58
2022/10/09 06:25:01;;;;;;;;;;;;;;;;;;4939748;28;19926;-60
2022/10/09 06:27:27;;;;;;;;;;;;;;;;;;4931139;28;19929;-60
2022/10/09 06:29:54;;;;;;;;;;;;;;;;;;4936996;28;19926;-60
2022/10/09 06:32:22;;;;;;;;;;;;;;;;;;4923926;28;19932;-60
2022/10/09 06:34:50;;;;;;;;;;;;;;;;;;4919039;28;20504;-59
2022/10/09 06:37:16;;;;;;;;;;;;;;;;;;4907813;28;20043;-59
2022/10/09 06:39:44;;;;;;;;;;;;;;;;;;4934432;28;20299;-59
2022/10/09 06:42:09;;;;;;;;;;;;;;;;;;4920976;28;19941;-59
2022/10/09 06:44:35;;;;;;;;;;;;;;;;;;4924185;28;19919;-59
2022/10/09 06:47:00;;;;;;;;;;;;;;;;;;4939292;28;19962;-59
2022/10/09 06:49:30;;;;;;;;;;;;;;;;;;4935165;28;20804;-60
2022/10/09 06:51:55;;;;;;;;;;;;;;;;;;4929486;28;19930;-60
2022/10/09 06:54:23;;;;;;;;;;;;;;;;;;4931403;28;19985;-60
2022/10/09 06:56:48;;;;;;;;;;;;;;;;;;4937864;28;20924;-59
2022/10/09 06:59:16;;;;;;;;;;;;;;;;;;4942865;28;19918;-60
2022/10/09 07:01:42;;;;;;;;;;;;;;;;;;4918251;28;19919;-58
2022/10/09 07:04:07;;;;;;;;;;;;;;;;;;4934069;28;19922;-59
2022/10/09 07:06:35;;;;;;;;;;;;;;;;;;4919077;28;19945;-59
2022/10/09 07:09:00;;;;;;;;;;;;;;;;;;4939920;28;19918;-59
2022/10/09 07:11:28;;;;;;;;;;;;;;;;;;4938935;28;19922;-59
2022/10/09 07:13:56;;;;;;;;;;;;;;;;;;4936835;28;19928;-59
2022/10/09 07:16:21;;;;;;;;;;;;;;;;;;4924194;28;20412;-60
2022/10/09 07:18:47;;;;;;;;;;;;;;;;;;4919701;28;20358;-60
2022/10/09 07:21:12;;;;;;;;;;;;;;;;;;4935378;28;19929;-59
2022/10/09 07:23:40;;;;;;;;;;;;;;;;;;4917011;28;20578;-59
2022/10/09 07:26:06;;;;;;;;;;;;;;;;;;4934760;28;19929;-59
2022/10/09 07:28:32;;;;;;;;;;;;;;;;;;4938013;28;20036;-59
2022/10/09 07:30:59;;;;;;;;;;;;;;;;;;4943010;28;19954;-59
2022/10/09 07:33:27;;;;;;;;;;;;;;;;;;4938969;28;20401;-59
2022/10/09 07:35:53;;;;;;;;;;;;;;;;;;4937719;28;19922;-59
2022/10/09 07:38:18;;;;;;;;;;;;;;;;;;4939661;28;19933;-59
2022/10/09 07:40:44;;;;;;;;;;;;;;;;;;4941662;28;19923;-59
2022/10/09 07:43:12;;;;;;;;;;;;;;;;;;4939365;28;19968;-59
2022/10/09 07:45:38;;;;;;;;;;;;;;;;;;4936339;28;19918;-59
2022/10/09 07:48:03;;;;;;;;;;;;;;;;;;4939640;28;19974;-59
2022/10/09 07:50:29;;;;;;;;;;;;;;;;;;4938887;28;20434;-59
2022/10/09 07:52:54;;;;;;;;;;;;;;;;;;4918392;28;19930;-57
2022/10/09 07:55:19;;;;;;;;;;;;;;;;;;4906028;28;19918;-59
2022/10/09 07:57:47;;;;;;;;;;;;;;;;;;4924792;28;19969;-59
2022/10/09 08:00:13;;;;;;;;;;;;;;;;;;4923716;28;20381;-60
2022/10/09 08:02:38;;;;;;;;;;;;;;;;;;4938817;28;19923;-61
2022/10/09 08:05:06;;;;;;;;;;;;;;;;;;4938812;28;19922;-60
2022/10/09 08:07:31;;;;;;;;;;;;;;;;;;4921393;28;20722;-59
2022/10/09 08:09:57;;;;;;;;;;;;;;;;;;4940396;28;19929;-60
2022/10/09 08:12:22;;;;;;;;;;;;;;;;;;4937871;28;20321;-60
2022/10/09 08:14:48;;;;;;;;;;;;;;;;;;4937156;28;19930;-59
2022/10/09 08:17:13;;;;;;;;;;;;;;;;;;4923937;28;19972;-60
2022/10/09 08:19:38;;;;;;;;;;;;;;;;;;4938454;28;19922;-59
2022/10/09 08:22:04;;;;;;;;;;;;;;;;;;4936805;28;19926;-60
2022/10/09 08:24:30;;;;;;;;;;;;;;;;;;4923102;28;20040;-60
2022/10/09 08:26:55;;;;;;;;;;;;;;;;;;4935132;28;20022;-59
2022/10/09 08:29:23;;;;;;;;;;;;;;;;;;4942518;28;19997;-60
2022/10/09 08:31:48;;;;;;;;;;;;;;;;;;4941586;28;19926;-59
2022/10/09 08:34:14;;;;;;;;;;;;;;;;;;4940313;28;19922;-59
2022/10/09 08:36:41;;;;;;;;;;;;;;;;;;4935968;28;19966;-60
2022/10/09 08:39:09;;;;;;;;;;;;;;;;;;4923765;28;20195;-59
2022/10/09 08:41:37;;;;;;;;;;;;;;;;;;4933534;28;19922;-59
2022/10/09 08:44:02;;;;;;;;;;;;;;;;;;4937717;28;19929;-59
2022/10/09 08:46:27;;;;;;;;;;;;;;;;;;4934689;28;20056;-61
2022/10/09 08:48:52;;;;;;;;;;;;;;;;;;4927138;28;19996;-60
2022/10/09 08:51:18;;;;;;;;;;;;;;;;;;4932117;28;19969;-59
2022/10/09 08:53:44;;;;;;;;;;;;;;;;;;4933257;28;21081;-60
2022/10/09 08:56:12;;;;;;;;;;;;;;;;;;4930049;28;19957;-59
2022/10/09 08:58:37;;;;;;;;;;;;;;;;;;4933618;28;20021;-60
2022/10/09 09:01:02;;;;;;;;;;;;;;;;;;4898125;28;20053;-60
2022/10/09 09:03:27;;;;;;;;;;;;;;;;;;4899922;28;19978;-60
2022/10/09 09:05:55;;;;;;;;;;;;;;;;;;4913327;28;20401;-60
2022/10/09 09:08:23;;;;;;;;;;;;;;;;;;4939464;28;20578;-60
2022/10/09 09:10:48;;;;;;;;;;;;;;;;;;4935941;28;19972;-61
2022/10/09 09:13:13;;;;;;;;;;;;;;;;;;4935671;28;20007;-59
2022/10/09 09:15:39;;;;;;;;;;;;;;;;;;4939832;28;20800;-60
2022/10/09 09:18:09;;;;;;;;;;;;;;;;;;4933804;28;19968;-58
2022/10/09 09:20:37;;;;;;;;;;;;;;;;;;4923964;28;19949;-60
2022/10/09 09:23:05;;;;;;;;;;;;;;;;;;4919547;28;19922;-60
2022/10/09 09:25:30;;;;;;;;;;;;;;;;;;4922659;28;20446;-60
2022/10/09 09:27:57;;;;;;;;;;;;;;;;;;4939416;28;19929;-60
2022/10/09 09:30:22;;;;;;;;;;;;;;;;;;4936855;28;19918;-60
2022/10/09 09:32:48;;;;;;;;;;;;;;;;;;4941177;28;20334;-59
2022/10/09 09:35:15;;;;;;;;;;;;;;;;;;4936917;28;20928;-61
2022/10/09 09:37:40;;;;;;;;;;;;;;;;;;4929296;28;19925;-59
2022/10/09 09:40:06;;;;;;;;;;;;;;;;;;4917480;29;19933;-59
2022/10/09 09:42:33;;;;;;;;;;;;;;;;;;4919610;29;20303;-59
2022/10/09 09:45:01;;;;;;;;;;;;;;;;;;4918565;29;20481;-60
2022/10/09 09:47:26;;;;;;;;;;;;;;;;;;4912521;28;19923;-61
2022/10/09 09:49:54;;;;;;;;;;;;;;;;;;4913428;29;19961;-61
2022/10/09 09:52:21;;;;;;;;;;;;;;;;;;4913281;29;20564;-60
2022/10/09 09:54:47;;;;;;;;;;;;;;;;;;4892909;29;20022;-60
2022/10/09 09:57:12;;;;;;;;;;;;;;;;;;4914344;29;20536;-59
2022/10/09 09:59:40;;;;;;;;;;;;;;;;;;4914404;29;19923;-59
2022/10/09 10:02:11;;;;;;;;;;;;;;;;;;4897413;29;20657;-60
2022/10/09 10:04:36;;;;;;;;;;;;;;;;;;4894270;29;19993;-60
2022/10/09 10:07:01;;;;;;;;;;;;;;;;;;4916434;29;20567;-60
2022/10/09 10:09:27;;;;;;;;;;;;;;;;;;4882094;29;20382;-60
2022/10/09 10:11:52;;;;;;;;;;;;;;;;;;4920533;29;19930;-59
2022/10/09 10:14:20;;;;;;;;;;;;;;;;;;4917697;29;19919;-61
2022/10/09 10:16:45;;;;;;;;;;;;;;;;;;4894160;29;19938;-60
2022/10/09 10:19:11;;;;;;;;;;;;;;;;;;4893818;29;19933;-60
2022/10/09 10:21:36;;;;;;;;;;;;;;;;;;4903001;29;19934;-59
2022/10/09 10:24:04;;;;;;;;;;;;;;;;;;4920573;29;19945;-61
2022/10/09 10:26:29;;;;;;;;;;;;;;;;;;4916932;29;20021;-60
2022/10/09 10:28:54;;;;;;;;;;;;;;;;;;4900625;29;19918;-60
2022/10/09 10:31:19;;;;;;;;;;;;;;;;;;4902813;28;19946;-61
2022/10/09 10:33:45;;;;;;;;;;;;;;;;;;4903395;29;19931;-60
2022/10/09 10:36:10;;;;;;;;;;;;;;;;;;4919689;29;20683;-59
2022/10/09 10:38:36;;;;;;;;;;;;;;;;;;4928291;28;20425;-60
2022/10/09 10:41:02;;;;;;;;;;;;;;;;;;4951782;28;19922;-59
2022/10/09 10:43:29;;;;;;;;;;;;;;;;;;4957019;28;19965;-60
2022/10/09 10:45:54;;;;;;;;;;;;;;;;;;4956940;28;19925;-60
2022/10/09 10:48:20;;;;;;;;;;;;;;;;;;4940489;28;19922;-60
2022/10/09 10:50:45;;;;;;;;;;;;;;;;;;4938540;28;19918;-60
2022/10/09 10:53:13;;;;;;;;;;;;;;;;;;4943639;28;19925;-59
2022/10/09 10:55:38;;;;;;;;;;;;;;;;;;4959693;28;19929;-60
2022/10/09 10:58:06;;;;;;;;;;;;;;;;;;4917587;28;20744;-61
2022/10/09 11:00:32;;;;;;;;;;;;;;;;;;4940841;28;19949;-59
2022/10/09 11:02:58;;;;;;;;;;;;;;;;;;4960151;28;20802;-61
2022/10/09 11:05:29;;;;;;;;;;;;;;;;;;4959010;28;19921;-61
2022/10/09 11:07:57;;;;;;;;;;;;;;;;;;4955176;28;19929;-59
2022/10/09 11:10:22;;;;;;;;;;;;;;;;;;4953928;28;19918;-60
2022/10/09 11:12:48;;;;;;;;;;;;;;;;;;4960240;28;19972;-60
2022/10/09 11:15:13;;;;;;;;;;;;;;;;;;4954841;28;19918;-61
2022/10/09 11:17:43;;;;;;;;;;;;;;;;;;4940513;28;20365;-62
2022/10/09 11:20:11;;;;;;;;;;;;;;;;;;4956136;28;19922;-58
2022/10/09 11:22:39;;;;;;;;;;;;;;;;;;4954569;28;20006;-60
2022/10/09 11:25:04;;;;;;;;;;;;;;;;;;4936953;28;20000;-60
2022/10/09 11:27:30;;;;;;;;;;;;;;;;;;4955138;28;19922;-62
2022/10/09 11:30:13;;;;;;;;;;;;;;;;;;4939284;28;20578;-61
2022/10/09 11:32:41;;;;;;;;;;;;;;;;;;4955481;28;19922;-61
2022/10/09 11:35:09;;;;;;;;;;;;;;;;;;4938826;28;19939;-58
2022/10/09 11:37:35;;;;;;;;;;;;;;;;;;4954650;28;20000;-61
2022/10/09 11:40:01;;;;;;;;;;;;;;;;;;4954440;28;19976;-62
2022/10/09 11:42:32;;;;;;;;;;;;;;;;;;4959314;28;19922;-61
2022/10/09 11:44:58;;;;;;;;;;;;;;;;;;4959464;28;19928;-59
2022/10/09 11:47:23;;;;;;;;;;;;;;;;;;4944456;28;19918;-59
2022/10/09 11:49:48;;;;;;;;;;;;;;;;;;4961523;28;19922;-60
2022/10/09 11:52:14;;;;;;;;;;;;;;;;;;4938769;28;19934;-59
2022/10/09 11:54:39;;;;;;;;;;;;;;;;;;4953270;28;19922;-60
2022/10/09 11:57:05;;;;;;;;;;;;;;;;;;4955855;28;19930;-61
2022/10/09 11:59:35;;;;;;;;;;;;;;;;;;4957253;28;20057;-60
2022/10/09 12:02:00;;;;;;;;;;;;;;;;;;4953847;28;19918;-59
2022/10/09 12:04:30;;;;;;;;;;;;;;;;;;4958085;28;19961;-60
2022/10/09 12:06:55;;;;;;;;;;;;;;;;;;4939220;28;19922;-60
2022/10/09 12:09:20;;;;;;;;;;;;;;;;;;4956436;28;19921;-58
2022/10/09 12:11:46;;;;;;;;;;;;;;;;;;4956286;28;19922;-58
2022/10/09 12:14:14;;;;;;;;;;;;;;;;;;4940820;28;19924;-59
2022/10/09 12:16:39;;;;;;;;;;;;;;;;;;4960547;28;19933;-61
2022/10/09 12:19:04;;;;;;;;;;;;;;;;;;4955683;28;19946;-59
2022/10/09 12:21:30;;;;;;;;;;;;;;;;;;4957727;28;19925;-62
2022/10/09 12:23:56;;;;;;;;;;;;;;;;;;4941216;28;19933;-60
2022/10/09 12:26:21;;;;;;;;;;;;;;;;;;4955376;28;19918;-62
2022/10/09 12:28:46;;;;;;;;;;;;;;;;;;4938362;28;20022;-60
2022/10/09 12:31:11;;;;;;;;;;;;;;;;;;4952528;28;19932;-62
2022/10/09 12:33:39;;;;;;;;;;;;;;;;;;4939692;28;19933;-61
2022/10/09 12:36:07;;;;;;;;;;;;;;;;;;4929763;28;19922;-62
2022/10/09 12:38:34;;;;;;;;;;;;;;;;;;4933846;28;20065;-62
2022/10/09 12:41:00;;;;;;;;;;;;;;;;;;4933728;28;19936;-61
2022/10/09 12:43:28;;;;;;;;;;;;;;;;;;4956229;28;19961;-61
2022/10/09 12:45:55;;;;;;;;;;;;;;;;;;4955718;28;19918;-61
2022/10/09 12:48:21;;;;;;;;;;;;;;;;;;4958583;28;20663;-60
2022/10/09 12:50:49;;;;;;;;;;;;;;;;;;4957384;28;20421;-61
2022/10/09 12:53:17;;;;;;;;;;;;;;;;;;4940134;28;20526;-61
2022/10/09 12:55:42;;;;;;;;;;;;;;;;;;4938407;28;19922;-60
2022/10/09 12:58:07;;;;;;;;;;;;;;;;;;4942170;28;19926;-60
2022/10/09 13:00:33;;;;;;;;;;;;;;;;;;4939303;28;20040;-60
2022/10/09 13:03:00;;;;;;;;;;;;;;;;;;4943789;28;21130;-60
2022/10/09 13:05:28;;;;;;;;;;;;;;;;;;4959077;28;19917;-61
2022/10/09 13:07:53;;;;;;;;;;;;;;;;;;4943564;28;19924;-60
2022/10/09 13:10:19;;;;;;;;;;;;;;;;;;4955957;28;19918;-60
2022/10/09 13:12:44;;;;;;;;;;;;;;;;;;4941054;28;19933;-61
2022/10/09 13:15:12;;;;;;;;;;;;;;;;;;4958938;28;19992;-60
2022/10/09 13:17:37;;;;;;;;;;;;;;;;;;4940047;28;19918;-60
2022/10/09 13:20:03;;;;;;;;;;;;;;;;;;4956530;28;19957;-60
2022/10/09 13:22:28;;;;;;;;;;;;;;;;;;4939982;28;19933;-61
2022/10/09 13:24:53;;;;;;;;;;;;;;;;;;4936246;28;19949;-61
2022/10/09 13:27:19;;;;;;;;;;;;;;;;;;4940962;28;19957;-61
2022/10/09 13:29:46;;;;;;;;;;;;;;;;;;4942698;28;19965;-59
2022/10/09 13:32:14;;;;;;;;;;;;;;;;;;4942299;28;19926;-62
2022/10/09 13:34:39;;;;;;;;;;;;;;;;;;4958080;28;19933;-60
2022/10/09 13:37:05;;;;;;;;;;;;;;;;;;4956569;28;20428;-61
2022/10/09 13:39:31;;;;;;;;;;;;;;;;;;4941491;28;20044;-59
2022/10/09 13:41:56;;;;;;;;;;;;;;;;;;4935245;28;20289;-61
2022/10/09 13:44:21;;;;;;;;;;;;;;;;;;4956813;28;20609;-61
2022/10/09 13:46:47;;;;;;;;;;;;;;;;;;4956891;28;19933;-62
2022/10/09 13:49:13;;;;;;;;;;;;;;;;;;4940753;28;19921;-61
2022/10/09 13:51:38;;;;;;;;;;;;;;;;;;4956756;28;19914;-61
2022/10/09 13:54:04;;;;;;;;;;;;;;;;;;4955424;28;21873;-61
2022/10/09 13:56:29;;;;;;;;;;;;;;;;;;4955623;28;19933;-61
2022/10/09 13:58:54;;;;;;;;;;;;;;;;;;4934295;28;19996;-61
2022/10/09 14:01:20;;;;;;;;;;;;;;;;;;4953922;28;19944;-62
2022/10/09 14:03:45;;;;;;;;;;;;;;;;;;4953895;28;19922;-60
2022/10/09 14:06:10;;;;;;;;;;;;;;;;;;4935750;28;19963;-60
2022/10/09 14:08:39;;;;;;;;;;;;;;;;;;4942805;28;20654;-59
2022/10/09 14:11:05;;;;;;;;;;;;;;;;;;4953916;28;19922;-61
2022/10/09 14:13:33;;;;;;;;;;;;;;;;;;4958338;28;19921;-61
2022/10/09 14:15:59;;;;;;;;;;;;;;;;;;4957686;28;19923;-61
2022/10/09 14:18:24;;;;;;;;;;;;;;;;;;4954006;28;19924;-61
2022/10/09 14:20:52;;;;;;;;;;;;;;;;;;4934046;28;19919;-61
2022/10/09 14:23:20;;;;;;;;;;;;;;;;;;4927745;28;19949;-61
2022/10/09 14:25:45;;;;;;;;;;;;;;;;;;4920537;28;20381;-59
2022/10/09 14:28:11;;;;;;;;;;;;;;;;;;4960826;28;19929;-61
2022/10/09 14:30:36;;;;;;;;;;;;;;;;;;4962829;28;19929;-60
2022/10/09 14:33:04;;;;;;;;;;;;;;;;;;4965328;28;19933;-61
2022/10/09 14:35:32;;;;;;;;;;;;;;;;;;4962458;28;20027;-60
2022/10/09 14:38:00;;;;;;;;;;;;;;;;;;4963799;28;20308;-60
2022/10/09 14:40:27;;;;;;;;;;;;;;;;;;4928452;28;19917;-61
2022/10/09 14:42:53;;;;;;;;;;;;;;;;;;4964381;28;19929;-61
2022/10/09 14:45:21;;;;;;;;;;;;;;;;;;4946252;28;19929;-60
2022/10/09 14:47:46;;;;;;;;;;;;;;;;;;4927921;28;19918;-62
2022/10/09 14:50:14;;;;;;;;;;;;;;;;;;4962758;28;19924;-60
2022/10/09 14:52:41;;;;;;;;;;;;;;;;;;4964353;28;19935;-61
2022/10/09 14:55:07;;;;;;;;;;;;;;;;;;4962376;28;19948;-61
2022/10/09 14:57:33;;;;;;;;;;;;;;;;;;4961527;28;19932;-61
2022/10/09 14:59:58;;;;;;;;;;;;;;;;;;4961784;28;19922;-60
2022/10/09 15:02:24;;;;;;;;;;;;;;;;;;4941149;28;19979;-60
2022/10/09 15:04:52;;;;;;;;;;;;;;;;;;4944299;28;19922;-61
2022/10/09 15:07:17;;;;;;;;;;;;;;;;;;4963631;28;19981;-61
2022/10/09 15:09:43;;;;;;;;;;;;;;;;;;4946220;28;19953;-61
2022/10/09 15:12:08;;;;;;;;;;;;;;;;;;4961369;28;19926;-61
2022/10/09 15:14:36;;;;;;;;;;;;;;;;;;4964778;28;21025;-63
2022/10/09 15:17:01;;;;;;;;;;;;;;;;;;4961015;28;21114;-63
2022/10/09 15:19:27;;;;;;;;;;;;;;;;;;4963213;28;20476;-61
2022/10/09 15:21:55;;;;;;;;;;;;;;;;;;4962811;28;19922;-61
2022/10/09 15:24:23;;;;;;;;;;;;;;;;;;4961807;28;19925;-59
2022/10/09 15:26:48;;;;;;;;;;;;;;;;;;4940710;28;19929;-61
2022/10/09 15:29:16;;;;;;;;;;;;;;;;;;4945175;28;19933;-61
2022/10/09 15:31:42;;;;;;;;;;;;;;;;;;4942581;28;19917;-62
2022/10/09 15:34:09;;;;;;;;;;;;;;;;;;4944703;28;19937;-61
2022/10/09 15:36:35;;;;;;;;;;;;;;;;;;4944170;28;19944;-62
2022/10/09 15:39:04;;;;;;;;;;;;;;;;;;4948651;28;20446;-60
2022/10/09 15:41:32;;;;;;;;;;;;;;;;;;4909584;28;19937;-60
2022/10/09 15:43:59;;;;;;;;;;;;;;;;;;4942136;28;19922;-61
2022/10/09 15:46:25;;;;;;;;;;;;;;;;;;4940902;28;19933;-61
2022/10/09 15:48:51;;;;;;;;;;;;;;;;;;4940728;28;19922;-61
2022/10/09 15:51:16;;;;;;;;;;;;;;;;;;4938659;28;21737;-61
2022/10/09 15:53:42;;;;;;;;;;;;;;;;;;4922803;28;19933;-61
2022/10/09 15:56:07;;;;;;;;;;;;;;;;;;4908279;28;19933;-62
2022/10/09 15:58:35;;;;;;;;;;;;;;;;;;4940176;28;19922;-62
2022/10/09 16:01:01;;;;;;;;;;;;;;;;;;4940434;28;19933;-61
2022/10/09 16:03:27;;;;;;;;;;;;;;;;;;4925361;28;19922;-62
2022/10/09 16:05:53;;;;;;;;;;;;;;;;;;4942226;28;19922;-61
2022/10/09 16:08:22;;;;;;;;;;;;;;;;;;4943286;28;19957;-61
2022/10/09 16:10:50;;;;;;;;;;;;;;;;;;4940444;28;19918;-62
2022/10/09 16:13:16;;;;;;;;;;;;;;;;;;4923505;28;19934;-60
2022/10/09 16:15:43;;;;;;;;;;;;;;;;;;4925075;28;19953;-60
2022/10/09 16:18:09;;;;;;;;;;;;;;;;;;4923869;28;20048;-61
2022/10/09 16:20:36;;;;;;;;;;;;;;;;;;4926712;28;19922;-61
2022/10/09 16:23:02;;;;;;;;;;;;;;;;;;4938379;28;20098;-60
2022/10/09 16:25:27;;;;;;;;;;;;;;;;;;4936751;28;20837;-61
2022/10/09 16:27:55;;;;;;;;;;;;;;;;;;4916572;28;19924;-61
2022/10/09 16:30:20;;;;;;;;;;;;;;;;;;4936739;28;20583;-60
2022/10/09 16:32:49;;;;;;;;;;;;;;;;;;4921163;28;19930;-60
2022/10/09 16:35:14;;;;;;;;;;;;;;;;;;4924381;28;20408;-60
2022/10/09 16:37:39;;;;;;;;;;;;;;;;;;4907771;28;19922;-61
2022/10/09 16:40:05;;;;;;;;;;;;;;;;;;4942006;28;19979;-60